• Join FlightAware (Why Join?)
  • Login
  • US Flag 
09:21AM EST


 

Airport Tracker/Info


-or-


 

Live Flight TrackerFlight Track Log ✈ XSR335 ✈ 08-Jun-2014 ✈ KAUS - KFTW

Flight Track Log - Related Links

Times and Time Zones

All times are in EDT time to prevent confusion due to time zone crossing. See the XSR335 flight status page for this flight to view local times or setup timezone preferences in your user account.

Time Position Orientation Groundspeed Altitude Reporting Facility
EDT Latitude Longitude Course Direction KTS MPH feet Rate Location/Type
10:10PM 30.1749 -97.6572 179° South 170 196 2,000  Level FlightAware ADS-B
10:11PM 30.1632 -97.6569 178° South 193 222 2,700 3,120 Climbing FlightAware ADS-B
10:11PM 30.1560 -97.6574 188° South 201 231 3,100 3,000 Climbing FlightAware ADS-B
10:11PM 30.1441 -97.6651 224° Southwest 224 258 3,800 2,580 Climbing FlightAware ADS-B
10:11PM 30.1366 -97.6870 266° West 260 299 4,500 2,700 Climbing FlightAware ADS-B
10:11PM 30.1370 -97.6927 276° West 262 302 4,800 4,500 Climbing FlightAware ADS-B
10:11PM 30.1382 -97.6981 285° West 265 305 5,100 3,720 Climbing FlightAware ADS-B
10:12PM 30.1401 -97.7031 290° West 267 307 5,300 3,420 Climbing FlightAware ADS-B
10:12PM 30.1423 -97.7070 303° West 274 315 5,500 3,000 Climbing FlightAware ADS-B
10:12PM 30.1449 -97.7104 311° West 279 321 5,600 2,220 Climbing FlightAware ADS-B
10:12PM 30.1497 -97.7154 319° Northwest 287 330 5,800 3,000 Climbing FlightAware ADS-B
10:12PM 30.1590 -97.7240 321° Northwest 292 336 6,300 3,840 Climbing FlightAware ADS-B
10:12PM 30.1670 -97.7320 318° Northwest 285 328 6,900 4,380 Climbing FlightAware ADS-B
10:12PM 30.1811 -97.7477 316° Northwest 280 322 8,000 3,600 Climbing FlightAware ADS-B
10:12PM 30.1958 -97.7638 317° Northwest 294 338 8,700 2,700 Climbing FlightAware ADS-B
10:13PM 30.2041 -97.7728 317° Northwest 295 339 9,100 2,760 Climbing FlightAware ADS-B (KHOU)
10:13PM 30.2110 -97.7803 316° Northwest 299 344 9,400 3,000 Climbing FlightAware ADS-B
10:13PM 30.2166 -97.7865 315° West 296 341 9,700 3,000 Climbing FlightAware ADS-B (KGTU)
10:13PM 30.2352 -97.8070 317° Northwest 309 356 10,600 3,000 Climbing FlightAware ADS-B
10:13PM 30.2398 -97.8113 322° Northwest 312 359 10,800 2,520 Climbing FlightAware ADS-B
10:13PM 30.2435 -97.8141 327° Northwest 313 360 10,900 3,000 Climbing FlightAware ADS-B
10:13PM 30.2499 -97.8176 337° Northwest 315 362 11,200 3,000 Climbing FlightAware ADS-B
10:13PM 30.2484 -97.8169 317° Northwest 298 343 11,200 2,400 Level FlightAware ADS-B (KHOU)
10:13PM 30.2573 -97.8203 344° North 317 365 11,400 1,800 Climbing FlightAware ADS-B
10:14PM 30.2842 -97.8282 345° North 336 387 11,900 1,380 Climbing FlightAware ADS-B (KGTU)
10:14PM 30.3021 -97.8341 344° North 347 399 12,100 480 Climbing FlightAware ADS-B
10:14PM 30.3211 -97.8406 344° North 356 410 12,100  Level FlightAware ADS-B (KHOU)
10:14PM 30.3322 -97.8444 343° North 355 409 12,100  Level FlightAware ADS-B (KGTU)
10:14PM 30.3503 -97.8507 343° North 373 429 12,100 660 Level FlightAware ADS-B
10:15PM 30.3698 -97.8574 344° North 376 433 12,400 1,260 Climbing FlightAware ADS-B (KHOU)
10:15PM 30.3811 -97.8614 343° North 370 426 12,500 1,560 Climbing FlightAware ADS-B (KGTU)
10:15PM 30.4021 -97.8686 343° North 378 435 12,800 1,560 Climbing FlightAware ADS-B
10:15PM 30.4328 -97.8792 343° North 371 427 13,300 1,500 Climbing FlightAware ADS-B (KGTU)
10:15PM 30.4537 -97.8865 343° North 380 437 13,600 1,320 Climbing FlightAware ADS-B
10:16PM 30.4696 -97.8913 347° North 381 438 13,800 1,320 Climbing FlightAware ADS-B
10:16PM 30.4846 -97.8926 360° North 374 430 14,000 1,380 Climbing FlightAware ADS-B (KGTU)
10:16PM 30.4995 -97.8920 North 381 438 14,200 1,800 Climbing FlightAware ADS-B
10:16PM 30.5023 -97.8918 North 373 429 14,300 1,500 Climbing FlightAware ADS-B (KGTU)
10:16PM 30.5070 -97.8916 North 382 440 14,300 1,800 Level FlightAware ADS-B (KHOU)
10:16PM 30.5555 -97.8908 North 369 425 15,200 1,860 Climbing FlightAware ADS-B (KGTU)
10:17PM 30.5684 -97.8907 North 376 433 15,400 1,980 Climbing FlightAware ADS-B (KHOU)
10:17PM 30.6079 -97.8905 North 374 430 16,200 1,980 Climbing FlightAware ADS-B (KGTU)
10:17PM 30.6553 -97.8901 North 371 427 17,100 1,980 Climbing FlightAware ADS-B (KHOU)
10:17PM 30.6594 -97.8901 North 370 426 17,200 1,980 Climbing FlightAware ADS-B (KGTU)
10:18PM 30.6931 -97.8898 North 367 422 17,800 1,980 Climbing FlightAware ADS-B (KGTU)
10:18PM 30.6992 -97.8898 North 367 422 18,100 1,980 Climbing FlightAware ADS-B (KHOU)
10:18PM 30.7443 -97.8894 North 355 409 18,800 1,980 Climbing FlightAware ADS-B (KGTU)
10:19PM 30.7711 -97.8892 North 362 417 19,600 1,920 Climbing FlightAware ADS-B (KHOU)
10:19PM 30.7956 -97.8889 North 354 407 19,800 1,680 Climbing FlightAware ADS-B (KGTU)
10:19PM 30.8545 -97.8885 North 352 405 20,900 1,560 Climbing FlightAware ADS-B
10:20PM 30.9045 -97.8880 North 343 395 21,600 1,380 Climbing FlightAware ADS-B
10:20PM 30.9485 -97.8877 North 334 384 22,300 1,140 Climbing FlightAware ADS-B (KHOU)
10:20PM 30.9494 -97.8877 North 334 384 22,200 900 Descending FlightAware ADS-B
10:21PM 31.0018 -97.8873 North 322 371 22,800 1,080 Climbing FlightAware ADS-B (KGTU)
10:21PM 31.0121 -97.8872 North 333 383 22,900 360 Climbing FlightAware ADS-B (KHOU)
10:21PM 31.0493 -97.8869 North 326 375 23,000 180 Climbing FlightAware ADS-B (KGTU)
10:22PM 31.0560 -97.8868 North 336 387 23,000  Level FlightAware ADS-B (KHOU)
10:22PM 31.1043 -97.8865 North 344 396 23,000  Level FlightAware ADS-B (KHOU)
10:22PM 31.1150 -97.8864 North 345 397 23,000  Level FlightAware ADS-B
10:23PM 31.1564 -97.8860 North 350 403 23,000  Level FlightAware ADS-B (KHOU)
10:23PM 31.1639 -97.8859 North 349 402 23,000  Level FlightAware ADS-B
10:23PM 31.1870 -97.8858 North 346 398 23,000  Level FlightAware ADS-B (KHOU)
10:23PM 31.2116 -97.8836 North 346 398 23,000  Level FlightAware ADS-B
10:24PM 31.2524 -97.8784 North 351 404 23,000  Level FlightAware ADS-B (KHOU)
10:24PM 31.2602 -97.8775 North 353 406 23,000  Level FlightAware ADS-B
10:24PM 31.2956 -97.8733 North 361 415 23,000  Level FlightAware ADS-B (KHOU)
10:24PM 31.3082 -97.8718 North 364 419 23,000  Level FlightAware ADS-B
10:24PM 31.3286 -97.8693 North 363 418 23,000  Level FlightAware ADS-B (KHOU)
10:25PM 31.3591 -97.8656 North 372 428 23,000  Level FlightAware ADS-B
10:25PM 31.4089 -97.8595 North 379 436 23,000  Level FlightAware ADS-B
10:26PM 31.4577 -97.8535 North 363 418 23,000  Level FlightAware ADS-B (KHOU)
10:26PM 31.4907 -97.8495 North 386 444 23,000 -300 Level FlightAware ADS-B
10:27PM 31.5710 -97.8396 North 385 443 22,700 -840 Descending FlightAware ADS-B
10:27PM 31.6236 -97.8330 North 382 440 22,000 -1,980 Descending FlightAware ADS-B
10:28PM 31.7537 -97.8170 North 356 410 19,300 -2,280 Descending FlightAware ADS-B (KHOU)
10:29PM 31.7744 -97.8145 North 366 421 18,700 -2,220 Descending FlightAware ADS-B
10:29PM 31.8005 -97.8113 North 345 397 18,200 -1,680 Descending FlightAware ADS-B (KHOU)
10:29PM 31.8331 -97.8075 North 355 409 17,400 -1,860 Descending Fort Worth Center
10:30PM 31.9369 -97.7961 North 375 432 15,400 -2,160 Descending Fort Worth Center
10:31PM 32.0658 -97.7786 North 406 467 13,000 -2,220 Descending Fort Worth Center
10:32PM 32.1686 -97.7656 North 346 398 10,900 -1,920 Descending Fort Worth Center
10:33PM 32.2536 -97.7556 North 311 358 9,100 -1,020 Descending Fort Worth Center
10:39PM 32.7276 -97.6115 24° Northeast 258 297 4,100 -780 Descending FlightAware ADS-B
10:40PM 32.7514 -97.5992 24° Northeast 258 297 4,100  Level FlightAware ADS-B
10:41PM 32.8059 -97.5701 24° Northeast 241 277 4,100  Level FlightAware ADS-B
10:41PM 32.8276 -97.5585 24° Northeast 236 272 4,100  Level FlightAware ADS-B
10:41PM 32.8464 -97.5480 31° Northeast 233 268 4,100  Level FlightAware ADS-B
10:42PM 32.8637 -97.5345 34° Northeast 234 269 4,100 -180 Level FlightAware ADS-B
10:42PM 32.8824 -97.5169 43° Northeast 232 267 4,000 -660 Descending FlightAware ADS-B
10:42PM 32.8981 -97.4993 47° Northeast 234 269 3,700 -900 Descending FlightAware ADS-B
10:43PM 32.9055 -97.4791 80° East 224 258 3,400 -1,080 Descending FlightAware ADS-B
10:43PM 32.9095 -97.4523 80° East 225 259 3,000 -1,380 Descending FlightAware ADS-B
10:43PM 32.9121 -97.4273 90° East 225 259 2,500 -1,200 Descending FlightAware ADS-B
10:44PM 32.9096 -97.4024 94° East 222 255 2,200 -720 Descending FlightAware ADS-B
10:44PM 32.9115 -97.4140 106° East 210 242 2,200 -480 Level FlightAware ADS-B (KAFW)
10:44PM 32.9060 -97.3926 117° Southeast 194 223 2,100 -420 Descending FlightAware ADS-B (KAFW)
10:44PM 32.9010 -97.3848 130° Southeast 168 193 2,100  Level FlightAware ADS-B
10:44PM 32.8961 -97.3786 135° Southeast 165 190 2,100 -360 Level FlightAware ADS-B (KAFW)
10:44PM 32.8961 -97.3786 153° Southeast 157 181 2,000 -600 Descending FlightAware ADS-B
10:45PM 32.8851 -97.3718 170° South 145 167 1,900 -780 Descending FlightAware ADS-B (KAFW)
10:45PM 32.8641 -97.3681 173° South 130 150 1,500 -840 Descending FlightAware ADS-B
10:45PM 32.8548 -97.3666 172° South 125 144 1,300 -600 Descending FlightAware ADS-B
10:46PM 32.8412 -97.3644 173° South 115 132 1,100 -660 Descending FlightAware ADS-B
10:46PM 32.8325 -97.3629 172° South 108 124 900 -660 Descending FlightAware ADS-B